createdAt,value
2023-01-30T00:01:44.886Z,99946.06
2023-01-30T00:04:17.133Z,99931.13
2023-01-30T00:06:45.475Z,99915.41
2023-01-30T00:09:15.312Z,99906.66
2023-01-30T00:11:43.257Z,99905.00
2023-01-30T00:14:11.126Z,99900.47
2023-01-30T00:16:39.006Z,99877.75
2023-01-30T00:19:10.174Z,99865.41
2023-01-30T00:21:39.475Z,99846.34
2023-01-30T00:24:07.903Z,99863.91
2023-01-30T00:26:35.978Z,99859.47
2023-01-30T00:29:03.894Z,99829.66
2023-01-30T00:31:31.733Z,99837.56
2023-01-30T00:33:59.596Z,99850.72
2023-01-30T00:36:27.816Z,99850.81
2023-01-30T00:38:59.550Z,99859.41
2023-01-30T00:41:48.499Z,99888.28
2023-01-30T00:44:33.653Z,99869.72
2023-01-30T00:47:08.924Z,99820.88
2023-01-30T00:49:37.819Z,99829.59
2023-01-30T00:52:06.612Z,99798.94
2023-01-30T00:54:36.215Z,99791.91
2023-01-30T00:57:04.121Z,99839.28
2023-01-30T00:59:31.935Z,99824.41
2023-01-30T01:02:00.017Z,99786.81
2023-01-30T01:04:28.221Z,99824.50
2023-01-30T01:06:55.973Z,99822.25
2023-01-30T01:09:23.872Z,99865.41
2023-01-30T01:11:53.332Z,99881.28
2023-01-30T01:14:21.420Z,99918.00
2023-01-30T01:16:49.524Z,99902.25
2023-01-30T01:19:17.533Z,99939.75
2023-01-30T01:21:45.421Z,99925.81
2023-01-30T01:24:15.048Z,99880.38
2023-01-30T01:26:43.925Z,99925.06
2023-01-30T01:29:18.148Z,99948.63
2023-01-30T01:31:46.439Z,99894.44
2023-01-30T01:34:14.430Z,99958.47
2023-01-30T01:36:57.605Z,99978.59
2023-01-30T01:39:45.487Z,99961.09
2023-01-30T01:42:12.371Z,99992.72
2023-01-30T01:45:01.758Z,100044.41
2023-01-30T01:47:30.005Z,100042.84
2023-01-30T01:49:58.090Z,100092.75
2023-01-30T01:52:26.320Z,100054.47
2023-01-30T01:54:59.411Z,100093.94
2023-01-30T01:57:32.435Z,100137.69
2023-01-30T02:00:06.629Z,100100.16
2023-01-30T02:02:35.707Z,100121.19
2023-01-30T02:05:04.493Z,100132.66
2023-01-30T02:07:37.534Z,100142.34
2023-01-30T02:10:07.861Z,100128.38
2023-01-30T02:12:36.006Z,100117.25
2023-01-30T02:15:06.179Z,100170.56
2023-01-30T02:17:34.057Z,100177.63
2023-01-30T02:20:10.956Z,100202.09
2023-01-30T02:23:24.771Z,100189.91
2023-01-30T02:26:23.441Z,100204.78
2023-01-30T02:29:24.999Z,100194.28
2023-01-30T02:31:58.785Z,100193.41
2023-01-30T02:34:39.974Z,100198.75
2023-01-30T02:37:23.412Z,100227.50
2023-01-30T02:40:06.822Z,100215.28
2023-01-30T02:42:44.481Z,100243.09
2023-01-30T02:45:21.978Z,100234.38
2023-01-30T02:47:58.220Z,100215.00
2023-01-30T02:50:30.479Z,100230.78
2023-01-30T02:52:59.012Z,100247.31
2023-01-30T02:55:29.725Z,100244.59
2023-01-30T02:57:57.867Z,100227.84
2023-01-30T03:00:40.392Z,100230.38
2023-01-30T03:03:27.377Z,100220.66
2023-01-30T03:06:13.916Z,100217.06
2023-01-30T03:08:49.558Z,100174.13
2023-01-30T03:11:18.713Z,100184.53
2023-01-30T03:13:54.137Z,100163.41
2023-01-30T03:16:26.473Z,100182.53
2023-01-30T03:18:56.029Z,100176.22
2023-01-30T03:21:23.803Z,100111.28
2023-01-30T03:23:52.104Z,100117.41
2023-01-30T03:26:23.805Z,100079.72
2023-01-30T03:28:53.900Z,100061.34
2023-01-30T03:31:22.057Z,100082.28
2023-01-30T03:33:49.937Z,100084.00
2023-01-30T03:36:19.412Z,100072.47
2023-01-30T03:38:47.358Z,100065.44
2023-01-30T03:41:17.434Z,100060.97
2023-01-30T03:43:45.356Z,100019.81
2023-01-30T03:46:13.095Z,100015.28
2023-01-30T03:48:40.957Z,100013.56
2023-01-30T03:51:08.851Z,100002.13
2023-01-30T03:53:38.089Z,100009.03
2023-01-30T03:56:06.638Z,100029.94
2023-01-30T03:58:34.646Z,99977.50
2023-01-30T04:01:02.498Z,100006.41
2023-01-30T04:03:30.347Z,100013.34
2023-01-30T04:05:58.147Z,100014.16
2023-01-30T04:08:26.078Z,100039.31
2023-01-30T04:10:55.467Z,100023.31
2023-01-30T04:13:23.517Z,99997.06
2023-01-30T04:15:51.598Z,99994.19
2023-01-30T04:18:19.475Z,100011.63
2023-01-30T04:20:47.437Z,99975.72
2023-01-30T04:23:15.384Z,100009.78
2023-01-30T04:25:43.175Z,100017.63
2023-01-30T04:28:13.166Z,100022.06
2023-01-30T04:30:41.408Z,100054.53
2023-01-30T04:33:09.197Z,100043.13
2023-01-30T04:35:37.111Z,100045.91
2023-01-30T04:38:07.378Z,100083.53
2023-01-30T04:40:35.468Z,100072.16
2023-01-30T04:43:03.461Z,100091.34
2023-01-30T04:45:33.935Z,100099.34
2023-01-30T04:48:01.917Z,100131.66
2023-01-30T04:50:29.751Z,100133.28
2023-01-30T04:52:57.583Z,100136.75
2023-01-30T04:55:25.450Z,100156.00
2023-01-30T04:57:53.287Z,100162.94
2023-01-30T05:00:21.369Z,100177.81
2023-01-30T05:02:50.752Z,100160.28
2023-01-30T05:05:18.878Z,100164.66
2023-01-30T05:07:46.935Z,100153.25
2023-01-30T05:10:14.925Z,100182.16
2023-01-30T05:12:42.912Z,100183.78
2023-01-30T05:15:11.541Z,100168.94
2023-01-30T05:17:39.917Z,100193.38
2023-01-30T05:20:14.146Z,100186.19
2023-01-30T05:22:42.040Z,100187.75
2023-01-30T05:25:10.910Z,100180.66
2023-01-30T05:27:38.953Z,100181.44
2023-01-30T05:30:08.001Z,100177.84
2023-01-30T05:32:35.839Z,100167.19
2023-01-30T05:35:03.688Z,100155.03
2023-01-30T05:37:32.938Z,100173.22
2023-01-30T05:40:01.094Z,100146.03
2023-01-30T05:42:28.991Z,100171.28
2023-01-30T05:44:56.904Z,100178.22
2023-01-30T05:47:24.846Z,100144.00
2023-01-30T05:49:52.800Z,100158.94
2023-01-30T05:52:20.780Z,100160.59
2023-01-30T05:54:50.090Z,100145.66
2023-01-30T05:57:18.018Z,100156.06
2023-01-30T05:59:45.849Z,100134.13
2023-01-30T06:02:13.764Z,100127.97
2023-01-30T06:04:41.630Z,100139.22
2023-01-30T06:07:09.806Z,100130.31
2023-01-30T06:09:37.785Z,100118.78
2023-01-30T06:12:08.158Z,100116.97
2023-01-30T06:14:36.233Z,100112.47
2023-01-30T06:17:04.439Z,100101.91
2023-01-30T06:19:32.505Z,100096.56
2023-01-30T06:22:00.636Z,100089.56
2023-01-30T06:24:28.468Z,100078.16
2023-01-30T06:26:56.557Z,100097.38
2023-01-30T06:29:25.925Z,100097.19
2023-01-30T06:31:53.802Z,100093.69
2023-01-30T06:34:21.656Z,100091.88
2023-01-30T06:36:49.587Z,100095.22
2023-01-30T06:39:17.576Z,100086.34
2023-01-30T06:41:45.580Z,100069.59
2023-01-30T06:44:13.571Z,100094.19
2023-01-30T06:46:43.668Z,100091.59
2023-01-30T06:49:11.566Z,100103.69
2023-01-30T06:51:39.512Z,100103.63
2023-01-30T06:54:07.324Z,100088.66
2023-01-30T06:56:35.886Z,100089.50
2023-01-30T06:59:03.792Z,100093.78
2023-01-30T07:01:31.639Z,100071.06
2023-01-30T07:04:00.918Z,100099.06
2023-01-30T07:06:29.475Z,100098.25
2023-01-30T07:08:58.613Z,100116.78
2023-01-30T07:11:26.731Z,100141.22
2023-01-30T07:13:54.848Z,100139.66
2023-01-30T07:16:28.806Z,100147.53
2023-01-30T07:18:58.631Z,100161.50
2023-01-30T07:21:28.786Z,100183.50
2023-01-30T07:23:57.743Z,100178.31
2023-01-30T07:26:25.765Z,100191.53
2023-01-30T07:28:53.712Z,100204.56
2023-01-30T07:31:21.685Z,100202.81
2023-01-30T07:33:50.094Z,100230.00
2023-01-30T07:36:18.132Z,100240.44
2023-01-30T07:38:49.364Z,100228.19
2023-01-30T07:41:17.168Z,100237.75
2023-01-30T07:43:44.990Z,100244.91
2023-01-30T07:46:12.920Z,100269.31
2023-01-30T07:48:41.159Z,100252.56
2023-01-30T07:51:08.982Z,100258.69
2023-01-30T07:53:36.843Z,100254.38
2023-01-30T07:56:09.544Z,100267.44
2023-01-30T07:58:37.645Z,100277.00
2023-01-30T08:01:05.717Z,100284.78
2023-01-30T08:03:33.681Z,100257.53
2023-01-30T08:06:01.709Z,100240.78
2023-01-30T08:08:29.549Z,100259.84
2023-01-30T08:10:57.425Z,100267.59
2023-01-30T08:13:27.030Z,100287.38
2023-01-30T08:15:55.140Z,100261.97
2023-01-30T08:18:23.237Z,100258.41
2023-01-30T08:20:51.310Z,100260.84
2023-01-30T08:23:19.259Z,100239.75
2023-01-30T08:25:47.180Z,100236.25
2023-01-30T08:28:15.150Z,100249.16
2023-01-30T08:30:44.902Z,100245.53
2023-01-30T08:33:13.060Z,100236.75
2023-01-30T08:35:41.430Z,100208.56
2023-01-30T08:38:09.959Z,100212.53
2023-01-30T08:40:38.234Z,100195.44
2023-01-30T08:43:06.783Z,100154.94
2023-01-30T08:45:35.221Z,100110.97
2023-01-30T08:48:06.444Z,100104.78
2023-01-30T08:50:35.055Z,100105.47
2023-01-30T08:53:05.827Z,100122.75
2023-01-30T08:55:33.956Z,100107.44
2023-01-30T08:58:01.898Z,100119.28
2023-01-30T09:00:30.311Z,100112.50
2023-01-30T09:02:58.986Z,100066.44
2023-01-30T09:05:30.143Z,100032.88
2023-01-30T09:07:57.925Z,100012.75
2023-01-30T09:10:25.929Z,99968.03
2023-01-30T09:12:53.833Z,99961.03
2023-01-30T09:15:21.796Z,99967.13
2023-01-30T09:17:49.913Z,99918.16
2023-01-30T09:20:19.142Z,99939.09
2023-01-30T09:22:49.439Z,99939.72
2023-01-30T09:25:17.534Z,99905.50
2023-01-30T09:27:45.479Z,99899.34
2023-01-30T09:30:14.149Z,99897.50
2023-01-30T09:32:41.997Z,99891.19
2023-01-30T09:35:09.969Z,99855.38
2023-01-30T09:37:37.970Z,99859.75
2023-01-30T09:40:10.930Z,99872.13
2023-01-30T09:42:55.088Z,99884.31
2023-01-30T09:45:43.068Z,99908.38
2023-01-30T09:48:19.494Z,99913.88
2023-01-30T09:51:12.785Z,99925.63
2023-01-30T09:53:56.834Z,99928.56
2023-01-30T09:56:26.332Z,99926.31
2023-01-30T09:58:58.145Z,99914.81
2023-01-30T10:01:31.476Z,99847.84
2023-01-30T10:04:10.301Z,99751.59
2023-01-30T10:06:48.152Z,99733.47
2023-01-30T10:09:25.788Z,99719.81
2023-01-30T10:12:05.297Z,99693.72
2023-01-30T10:14:55.806Z,99657.97
2023-01-30T10:17:49.418Z,99658.59
2023-01-30T10:20:31.792Z,99632.91
2023-01-30T10:23:10.852Z,99629.47
2023-01-30T10:25:44.622Z,99657.47
2023-01-30T10:28:19.413Z,99636.00
2023-01-30T10:30:49.287Z,99600.59
2023-01-30T10:33:22.481Z,99591.97
2023-01-30T10:36:02.173Z,99583.03
2023-01-30T10:38:36.435Z,99588.13
2023-01-30T10:41:12.724Z,99576.44
2023-01-30T10:43:48.069Z,99574.44
2023-01-30T10:46:36.121Z,99593.31
2023-01-30T10:49:07.843Z,99607.38
2023-01-30T10:51:46.254Z,99546.06
2023-01-30T10:54:19.943Z,99522.06
2023-01-30T10:56:55.631Z,99477.16
2023-01-30T10:59:34.241Z,99521.34
2023-01-30T11:02:12.471Z,99416.81
2023-01-30T11:04:48.923Z,99457.97
2023-01-30T11:07:17.539Z,99486.41
2023-01-30T11:09:47.056Z,99461.25
2023-01-30T11:12:15.391Z,99434.81
2023-01-30T11:14:59.826Z,99360.72
2023-01-30T11:17:35.137Z,99360.13
2023-01-30T11:20:08.826Z,99344.03
2023-01-30T11:22:38.472Z,99343.09
2023-01-30T11:25:15.089Z,99323.84
2023-01-30T11:27:44.485Z,99256.59
2023-01-30T11:30:18.788Z,99245.56
2023-01-30T11:32:49.568Z,99227.91
2023-01-30T11:35:29.172Z,99304.34
2023-01-30T11:38:13.196Z,99212.75
2023-01-30T11:40:41.904Z,99174.97
2023-01-30T11:43:14.305Z,99149.50
2023-01-30T11:45:47.922Z,99188.03
2023-01-30T11:48:33.170Z,99215.00
2023-01-30T11:51:10.800Z,99279.91
2023-01-30T11:53:42.438Z,99173.91
2023-01-30T11:56:18.122Z,99157.06
2023-01-30T11:58:49.992Z,99053.06
2023-01-30T12:01:19.333Z,99086.34
2023-01-30T12:03:51.420Z,99090.81
2023-01-30T12:06:30.155Z,99060.09
2023-01-30T12:08:58.848Z,99084.25
2023-01-30T12:11:32.613Z,99126.75
2023-01-30T12:14:16.248Z,99198.00
2023-01-30T12:16:59.217Z,99196.78
2023-01-30T12:19:44.580Z,99120.56
2023-01-30T12:22:22.855Z,99075.47
2023-01-30T12:24:59.731Z,98854.34
2023-01-30T12:27:37.103Z,98824.22
2023-01-30T12:30:17.443Z,98836.97
2023-01-30T12:32:47.008Z,98902.56
2023-01-30T12:35:17.891Z,98770.41
2023-01-30T12:38:00.224Z,98805.56
2023-01-30T12:40:44.658Z,98789.44
2023-01-30T12:43:41.412Z,98669.44
2023-01-30T12:46:24.307Z,98741.00
2023-01-30T12:49:11.657Z,98783.69
2023-01-30T12:52:06.642Z,98710.28
2023-01-30T12:54:49.045Z,98645.00
2023-01-30T12:57:25.382Z,98612.53
2023-01-30T13:00:04.532Z,98659.66
2023-01-30T13:02:47.934Z,98671.97
2023-01-30T13:05:30.211Z,98745.22
2023-01-30T13:08:10.855Z,98754.22
2023-01-30T13:10:49.531Z,98722.38
2023-01-30T13:13:26.966Z,98722.38
2023-01-30T13:16:03.607Z,98698.97
2023-01-30T13:18:37.188Z,98741.25
2023-01-30T13:21:12.518Z,98767.97
2023-01-30T13:23:49.902Z,98778.97
2023-01-30T13:26:20.806Z,98726.75
2023-01-30T13:28:52.128Z,98760.44
2023-01-30T13:31:22.995Z,98878.88
2023-01-30T13:34:03.177Z,98952.94
2023-01-30T13:36:39.710Z,99043.75
2023-01-30T13:39:14.425Z,99182.03
2023-01-30T13:41:47.749Z,99201.31
2023-01-30T13:44:22.422Z,99228.19
2023-01-30T13:46:52.768Z,99261.22
2023-01-30T13:49:26.863Z,99301.03
2023-01-30T13:52:05.280Z,99270.16
2023-01-30T13:54:46.187Z,99231.72
2023-01-30T13:57:23.252Z,99220.53
2023-01-30T14:00:17.990Z,99192.75
2023-01-30T14:03:31.799Z,99206.53
2023-01-30T14:06:13.191Z,99267.38
2023-01-30T14:08:52.032Z,99255.16
2023-01-30T14:11:52.033Z,99248.00
2023-01-30T14:14:29.417Z,99305.88
2023-01-30T14:17:08.335Z,99303.34
2023-01-30T14:19:42.436Z,99305.88
2023-01-30T14:22:25.976Z,99279.25
2023-01-30T14:25:35.472Z,99305.56
2023-01-30T14:28:49.438Z,99309.31
2023-01-30T14:31:54.051Z,99311.22
2023-01-30T14:35:04.063Z,99333.13
2023-01-30T14:38:13.200Z,99321.66
2023-01-30T14:40:50.459Z,99322.53
2023-01-30T14:43:35.305Z,99320.97
2023-01-30T14:46:07.488Z,99347.31
2023-01-30T14:48:44.603Z,99395.66
2023-01-30T14:51:23.215Z,99420.75
2023-01-30T14:53:55.171Z,99398.03
2023-01-30T14:56:44.244Z,99404.88
2023-01-30T14:59:23.470Z,99400.66
2023-01-30T15:02:04.232Z,99412.09
2023-01-30T15:04:34.212Z,99398.88
2023-01-30T15:07:07.642Z,99379.56
2023-01-30T15:09:38.351Z,99396.16
2023-01-30T15:12:27.027Z,99383.84
2023-01-30T15:15:03.910Z,99389.13
2023-01-30T15:17:43.015Z,99388.44
2023-01-30T15:20:28.051Z,99385.22
2023-01-30T15:23:17.402Z,99374.72
2023-01-30T15:26:06.450Z,99333.19
2023-01-30T15:28:47.277Z,99317.28
2023-01-30T15:31:17.687Z,99364.94
2023-01-30T15:33:47.635Z,99387.03
2023-01-30T15:36:26.699Z,99367.97
2023-01-30T15:38:59.391Z,99381.44
2023-01-30T15:41:28.225Z,99381.72
2023-01-30T15:44:34.111Z,99387.22
2023-01-30T15:47:19.430Z,99404.84
2023-01-30T15:50:00.269Z,99439.84
2023-01-30T15:52:40.109Z,99466.03
2023-01-30T15:55:16.214Z,99490.44
2023-01-30T15:57:49.479Z,99502.75
2023-01-30T16:00:29.170Z,99538.97
2023-01-30T16:02:58.677Z,99564.25
2023-01-30T16:05:27.735Z,99596.03
2023-01-30T16:07:57.053Z,99627.00
2023-01-30T16:10:28.140Z,99620.31
2023-01-30T16:12:57.428Z,99663.31
2023-01-30T16:15:33.327Z,99675.72
2023-01-30T16:18:05.767Z,99704.88
2023-01-30T16:20:55.272Z,99731.38
2023-01-30T16:23:31.367Z,99756.81
2023-01-30T16:26:00.691Z,99771.75
2023-01-30T16:28:30.728Z,99779.59
2023-01-30T16:31:02.273Z,99815.59
2023-01-30T16:33:35.737Z,99819.25
2023-01-30T16:36:04.110Z,99811.50
2023-01-30T16:38:44.169Z,99837.75
2023-01-30T16:41:31.424Z,99843.06
2023-01-30T16:44:24.729Z,99841.53
2023-01-30T16:46:58.399Z,99861.69
2023-01-30T16:49:39.287Z,99879.19
2023-01-30T16:52:20.151Z,99889.81
2023-01-30T16:54:51.270Z,99914.31
2023-01-30T16:57:36.227Z,99913.41
2023-01-30T17:00:10.264Z,99900.31
2023-01-30T17:02:43.220Z,99917.78
2023-01-30T17:05:20.152Z,99921.28
2023-01-30T17:07:49.357Z,99937.94
2023-01-30T17:10:56.104Z,99935.31
2023-01-30T17:13:32.542Z,99947.53
2023-01-30T17:16:19.349Z,99953.50
2023-01-30T17:18:49.538Z,99961.28
2023-01-30T17:21:18.602Z,99955.94
2023-01-30T17:23:48.851Z,99941.84
2023-01-30T17:26:17.536Z,99957.59
2023-01-30T17:28:45.713Z,99942.72
2023-01-30T17:31:14.450Z,99937.56
2023-01-30T17:33:42.892Z,99936.00
2023-01-30T17:36:17.302Z,99944.84
2023-01-30T17:38:45.158Z,99948.22
2023-01-30T17:41:19.466Z,99951.63
2023-01-30T17:43:49.648Z,99950.53
2023-01-30T17:46:17.777Z,99942.38
2023-01-30T17:48:45.874Z,99942.16
2023-01-30T17:51:15.224Z,99957.84
2023-01-30T17:53:43.009Z,99945.34
2023-01-30T17:56:18.743Z,99935.50
2023-01-30T17:58:46.636Z,99944.06
2023-01-30T18:01:16.293Z,99930.72
2023-01-30T18:03:45.070Z,99912.81
2023-01-30T18:06:16.485Z,99882.63
2023-01-30T18:08:44.399Z,99857.06
2023-01-30T18:11:14.787Z,99800.19
2023-01-30T18:13:43.591Z,99743.09
2023-01-30T18:16:17.402Z,99665.22
2023-01-30T18:18:45.447Z,99595.47
2023-01-30T18:21:13.383Z,99551.50
2023-01-30T18:23:42.614Z,99510.03
2023-01-30T18:26:13.095Z,99489.81
2023-01-30T18:28:41.314Z,99488.81
2023-01-30T18:31:09.192Z,99484.53
2023-01-30T18:33:37.691Z,99475.84
2023-01-30T18:36:07.121Z,99488.97
2023-01-30T18:38:35.284Z,99491.50
2023-01-30T18:41:09.287Z,99487.94
2023-01-30T18:43:37.425Z,99479.06
2023-01-30T18:46:07.244Z,99494.94
2023-01-30T18:48:35.964Z,99471.84
2023-01-30T18:51:08.336Z,99461.31
2023-01-30T18:53:36.696Z,99442.84
2023-01-30T18:56:05.573Z,99414.84
2023-01-30T18:58:35.345Z,99366.00
2023-01-30T19:01:11.172Z,99363.78
2023-01-30T19:03:39.491Z,99337.50
2023-01-30T19:06:10.662Z,99336.16
2023-01-30T19:08:39.397Z,99335.44
2023-01-30T19:11:22.344Z,99364.75
2023-01-30T19:13:51.567Z,99374.50
2023-01-30T19:16:19.744Z,99384.16
2023-01-30T19:18:47.829Z,99396.28
2023-01-30T19:21:15.657Z,99405.72
2023-01-30T19:23:43.506Z,99394.75
2023-01-30T19:26:11.729Z,99321.69
2023-01-30T19:28:41.672Z,99319.09
2023-01-30T19:31:13.771Z,99263.72
2023-01-30T19:33:42.108Z,99258.59
2023-01-30T19:36:10.766Z,99251.03
2023-01-30T19:38:38.734Z,99255.97
2023-01-30T19:41:11.386Z,99270.38
2023-01-30T19:43:39.782Z,99319.84
2023-01-30T19:46:10.859Z,99350.84
2023-01-30T19:48:41.626Z,99361.66
2023-01-30T19:51:14.544Z,99362.03
2023-01-30T19:53:42.756Z,99420.19
2023-01-30T19:56:12.689Z,99487.06
2023-01-30T19:58:41.698Z,99517.00
2023-01-30T20:01:11.215Z,99566.25
2023-01-30T20:03:41.771Z,99626.72
2023-01-30T20:06:13.236Z,99630.16
2023-01-30T20:08:41.749Z,99638.84
2023-01-30T20:11:11.656Z,99655.16
2023-01-30T20:13:41.419Z,99631.25
2023-01-30T20:16:11.166Z,99611.06
2023-01-30T20:18:41.167Z,99609.78
2023-01-30T20:21:11.009Z,99543.59
2023-01-30T20:23:41.270Z,99447.72
2023-01-30T20:26:11.559Z,99350.91
2023-01-30T20:28:40.201Z,99285.25
2023-01-30T20:31:09.969Z,99250.13
2023-01-30T20:33:38.148Z,99254.50
2023-01-30T20:36:09.775Z,99233.50
2023-01-30T20:38:40.163Z,99234.28
2023-01-30T20:41:10.299Z,99235.06
2023-01-30T20:43:40.315Z,99252.50
2023-01-30T20:46:10.558Z,99227.06
2023-01-30T20:48:39.591Z,99253.34
2023-01-30T20:51:11.559Z,99249.06
2023-01-30T20:53:40.702Z,99262.13
2023-01-30T20:56:10.608Z,99274.59
2023-01-30T20:58:39.731Z,99253.50
2023-01-30T21:01:08.762Z,99263.13
2023-01-30T21:03:37.083Z,99271.78
2023-01-30T21:06:06.337Z,99247.03
2023-01-30T21:08:36.341Z,99261.22
2023-01-30T21:11:06.718Z,99238.78
2023-01-30T21:13:35.822Z,99254.19
2023-01-30T21:16:06.690Z,99291.44
2023-01-30T21:18:37.080Z,99333.94
2023-01-30T21:21:06.481Z,99333.28
2023-01-30T21:23:36.964Z,99352.09
2023-01-30T21:26:06.485Z,99375.94
2023-01-30T21:28:34.802Z,99321.94
2023-01-30T21:31:07.395Z,99302.06
2023-01-30T21:33:36.003Z,99243.16
2023-01-30T21:36:04.746Z,99208.03
2023-01-30T21:38:50.465Z,99150.91
2023-01-30T21:41:39.013Z,99112.75
2023-01-30T21:44:07.622Z,99102.75
2023-01-30T21:46:39.397Z,99150.63
2023-01-30T21:49:07.879Z,99218.59
2023-01-30T21:51:36.736Z,99273.41
2023-01-30T21:54:05.936Z,99326.56
2023-01-30T21:56:35.656Z,99399.78
2023-01-30T21:59:06.486Z,99469.53
2023-01-30T22:01:35.473Z,99548.72
2023-01-30T22:04:05.608Z,99604.81
2023-01-30T22:06:34.520Z,99594.25
2023-01-30T22:09:04.474Z,99596.09
2023-01-30T22:11:32.821Z,99577.69
2023-01-30T22:14:02.237Z,99574.31
2023-01-30T22:16:33.777Z,99572.84
2023-01-30T22:19:03.918Z,99588.59
2023-01-30T22:21:35.142Z,99596.81
2023-01-30T22:24:05.437Z,99627.72
2023-01-30T22:26:33.978Z,99635.78
2023-01-30T22:29:05.267Z,99661.41
2023-01-30T22:31:35.530Z,99664.03
2023-01-30T22:34:04.443Z,99667.81
2023-01-30T22:36:34.250Z,99682.84
2023-01-30T22:39:03.025Z,99691.00
2023-01-30T22:41:34.668Z,99705.22
2023-01-30T22:44:06.554Z,99707.94
2023-01-30T22:46:36.541Z,99723.72
2023-01-30T22:49:06.494Z,99732.47
2023-01-30T22:51:36.391Z,99728.34
2023-01-30T22:54:06.721Z,99725.88
2023-01-30T22:56:38.265Z,99734.78
2023-01-30T22:59:08.500Z,99741.88
2023-01-30T23:01:38.362Z,99734.09
2023-01-30T23:04:09.044Z,99745.53
2023-01-30T23:06:38.163Z,99756.88
2023-01-30T23:09:07.811Z,99756.06
2023-01-30T23:11:39.152Z,99740.41
2023-01-30T23:14:10.549Z,99744.88
2023-01-30T23:16:40.438Z,99752.78
2023-01-30T23:19:08.933Z,99749.22
2023-01-30T23:21:39.454Z,99730.03
2023-01-30T23:24:10.677Z,99736.19
2023-01-30T23:26:41.318Z,99720.50
2023-01-30T23:29:14.107Z,99724.09
2023-01-30T23:31:44.089Z,99732.94
2023-01-30T23:34:15.284Z,99737.44
2023-01-30T23:36:43.397Z,99752.38
2023-01-30T23:39:13.601Z,99761.31
2023-01-30T23:41:42.338Z,99774.56
2023-01-30T23:44:11.704Z,99778.19
2023-01-30T23:46:41.978Z,99810.78
2023-01-30T23:49:11.983Z,99815.31
2023-01-30T23:51:42.466Z,99842.59
2023-01-30T23:54:13.809Z,99850.50
2023-01-30T23:56:43.594Z,99876.03
2023-01-30T23:59:13.512Z,99887.59
